sensor_id;sensor_type;location;lat;lon;timestamp;pressure;altitude;pressure_sealevel;temperature;humidity
55687;BME280;41911;52.362;4.978;2023-02-20T00:01:26;102447.24;;;4.86;55.34
55687;BME280;41911;52.362;4.978;2023-02-20T00:01:58;102448.92;;;5.20;55.21
55687;BME280;41911;52.362;4.978;2023-02-20T00:02:29;102446.27;;;5.06;55.56
55687;BME280;41911;52.362;4.978;2023-02-20T00:03:01;102442.06;;;5.38;55.52
55687;BME280;41911;52.362;4.978;2023-02-20T00:03:32;102438.59;;;5.04;55.66
55687;BME280;41911;52.362;4.978;2023-02-20T00:04:03;102440.25;;;4.80;55.94
55687;BME280;41911;52.362;4.978;2023-02-20T00:04:35;102438.83;;;5.07;56.28
55687;BME280;41911;52.362;4.978;2023-02-20T00:05:06;102433.03;;;5.30;55.86
55687;BME280;41911;52.362;4.978;2023-02-20T00:05:37;102438.10;;;5.20;56.12
55687;BME280;41911;52.362;4.978;2023-02-20T00:06:08;102436.14;;;5.28;56.08
55687;BME280;41911;52.362;4.978;2023-02-20T00:06:39;102435.54;;;5.29;55.96
55687;BME280;41911;52.362;4.978;2023-02-20T00:07:10;102434.37;;;5.40;55.91
55687;BME280;41911;52.362;4.978;2023-02-20T00:07:42;102437.95;;;5.35;55.93
55687;BME280;41911;52.362;4.978;2023-02-20T00:08:13;102432.38;;;4.99;55.96
55687;BME280;41911;52.362;4.978;2023-02-20T00:08:44;102432.63;;;5.26;56.01
55687;BME280;41911;52.362;4.978;2023-02-20T00:09:16;102431.74;;;5.16;56.31
55687;BME280;41911;52.362;4.978;2023-02-20T00:09:47;102432.95;;;5.29;55.52
55687;BME280;41911;52.362;4.978;2023-02-20T00:10:18;102429.42;;;5.53;55.65
55687;BME280;41911;52.362;4.978;2023-02-20T00:10:49;102430.98;;;5.64;55.59
55687;BME280;41911;52.362;4.978;2023-02-20T00:11:20;102427.48;;;5.53;55.80
55687;BME280;41911;52.362;4.978;2023-02-20T00:11:51;102425.94;;;5.95;55.24
55687;BME280;41911;52.362;4.978;2023-02-20T00:12:22;102429.63;;;5.98;54.55
55687;BME280;41911;52.362;4.978;2023-02-20T00:12:53;102424.16;;;5.82;55.07
55687;BME280;41911;52.362;4.978;2023-02-20T00:13:24;102424.87;;;5.96;55.03
55687;BME280;41911;52.362;4.978;2023-02-20T00:13:55;102424.78;;;5.62;55.55
55687;BME280;41911;52.362;4.978;2023-02-20T00:14:26;102422.17;;;5.65;55.36
55687;BME280;41911;52.362;4.978;2023-02-20T00:14:57;102419.08;;;5.49;55.15
55687;BME280;41911;52.362;4.978;2023-02-20T00:15:28;102420.12;;;4.99;56.00
55687;BME280;41911;52.362;4.978;2023-02-20T00:15:59;102422.68;;;4.77;56.70
55687;BME280;41911;52.362;4.978;2023-02-20T00:16:30;102417.48;;;5.34;56.23
55687;BME280;41911;52.362;4.978;2023-02-20T00:17:03;102422.55;;;5.80;55.43
55687;BME280;41911;52.362;4.978;2023-02-20T00:17:34;102419.41;;;5.32;55.70
55687;BME280;41911;52.362;4.978;2023-02-20T00:18:05;102422.88;;;5.81;55.40
55687;BME280;41911;52.362;4.978;2023-02-20T00:18:36;102422.21;;;5.70;55.41
55687;BME280;41911;52.362;4.978;2023-02-20T00:19:07;102422.30;;;5.40;55.58
55687;BME280;41911;52.362;4.978;2023-02-20T00:19:38;102421.30;;;5.56;55.41
55687;BME280;41911;52.362;4.978;2023-02-20T00:20:10;102419.17;;;5.47;55.48
55687;BME280;41911;52.362;4.978;2023-02-20T00:20:41;102423.23;;;5.87;55.33
55687;BME280;41911;52.362;4.978;2023-02-20T00:21:12;102420.55;;;5.58;55.39
55687;BME280;41911;52.362;4.978;2023-02-20T00:21:45;102419.28;;;5.43;55.41
55687;BME280;41911;52.362;4.978;2023-02-20T00:22:16;102414.14;;;5.42;55.47
55687;BME280;41911;52.362;4.978;2023-02-20T00:22:47;102419.39;;;5.91;55.22
55687;BME280;41911;52.362;4.978;2023-02-20T00:23:18;102421.43;;;4.98;55.67
55687;BME280;41911;52.362;4.978;2023-02-20T00:23:49;102417.16;;;5.45;55.87
55687;BME280;41911;52.362;4.978;2023-02-20T00:24:20;102416.23;;;5.46;55.52
55687;BME280;41911;52.362;4.978;2023-02-20T00:24:52;102417.98;;;5.51;55.27
55687;BME280;41911;52.362;4.978;2023-02-20T00:25:23;102417.97;;;5.59;55.32
55687;BME280;41911;52.362;4.978;2023-02-20T00:25:54;102417.58;;;5.40;55.46
55687;BME280;41911;52.362;4.978;2023-02-20T00:26:25;102418.78;;;5.47;55.46
55687;BME280;41911;52.362;4.978;2023-02-20T00:26:56;102415.73;;;5.73;55.21
55687;BME280;41911;52.362;4.978;2023-02-20T00:27:27;102416.22;;;5.85;55.08
55687;BME280;41911;52.362;4.978;2023-02-20T00:27:58;102410.04;;;5.79;55.21
55687;BME280;41911;52.362;4.978;2023-02-20T00:28:29;102415.05;;;5.56;55.37
55687;BME280;41911;52.362;4.978;2023-02-20T00:29:00;102414.71;;;5.10;55.50
55687;BME280;41911;52.362;4.978;2023-02-20T00:29:31;102409.38;;;5.50;56.02
55687;BME280;41911;52.362;4.978;2023-02-20T00:30:02;102411.94;;;5.46;55.68
55687;BME280;41911;52.362;4.978;2023-02-20T00:30:33;102407.01;;;4.97;56.21
55687;BME280;41911;52.362;4.978;2023-02-20T00:31:05;102408.59;;;5.16;56.53
55687;BME280;41911;52.362;4.978;2023-02-20T00:31:36;102405.10;;;5.76;55.82
55687;BME280;41911;52.362;4.978;2023-02-20T00:32:07;102401.21;;;5.46;55.54
55687;BME280;41911;52.362;4.978;2023-02-20T00:32:38;102403.64;;;5.96;55.44
55687;BME280;41911;52.362;4.978;2023-02-20T00:33:09;102404.18;;;5.92;54.99
55687;BME280;41911;52.362;4.978;2023-02-20T00:33:40;102406.59;;;5.97;54.87
55687;BME280;41911;52.362;4.978;2023-02-20T00:34:11;102406.79;;;6.09;54.36
55687;BME280;41911;52.362;4.978;2023-02-20T00:34:42;102405.25;;;6.48;54.39
55687;BME280;41911;52.362;4.978;2023-02-20T00:35:14;102404.04;;;5.81;54.58
55687;BME280;41911;52.362;4.978;2023-02-20T00:35:45;102404.67;;;6.07;54.25
55687;BME280;41911;52.362;4.978;2023-02-20T00:36:18;102405.00;;;6.15;53.99
55687;BME280;41911;52.362;4.978;2023-02-20T00:36:49;102408.33;;;5.79;54.41
55687;BME280;41911;52.362;4.978;2023-02-20T00:37:20;102407.68;;;5.87;54.34
55687;BME280;41911;52.362;4.978;2023-02-20T00:37:53;102411.62;;;5.86;54.27
55687;BME280;41911;52.362;4.978;2023-02-20T00:38:24;102405.13;;;5.70;54.55
55687;BME280;41911;52.362;4.978;2023-02-20T00:38:55;102404.99;;;5.58;54.81
55687;BME280;41911;52.362;4.978;2023-02-20T00:39:26;102402.55;;;5.82;55.00
55687;BME280;41911;52.362;4.978;2023-02-20T00:39:57;102403.65;;;5.49;54.99
55687;BME280;41911;52.362;4.978;2023-02-20T00:40:28;102404.41;;;5.96;54.90
55687;BME280;41911;52.362;4.978;2023-02-20T00:40:59;102405.98;;;6.03;54.54
55687;BME280;41911;52.362;4.978;2023-02-20T00:41:30;102405.37;;;5.64;55.25
55687;BME280;41911;52.362;4.978;2023-02-20T00:42:01;102409.93;;;5.68;55.28
55687;BME280;41911;52.362;4.978;2023-02-20T00:42:32;102409.03;;;5.20;55.55
55687;BME280;41911;52.362;4.978;2023-02-20T00:43:03;102406.22;;;5.16;55.57
55687;BME280;41911;52.362;4.978;2023-02-20T00:43:34;102411.77;;;5.76;55.19
55687;BME280;41911;52.362;4.978;2023-02-20T00:44:05;102407.59;;;5.86;55.04
55687;BME280;41911;52.362;4.978;2023-02-20T00:44:36;102408.72;;;5.61;55.40
55687;BME280;41911;52.362;4.978;2023-02-20T00:45:08;102407.22;;;5.44;56.20
55687;BME280;41911;52.362;4.978;2023-02-20T00:45:39;102402.98;;;5.39;56.07
55687;BME280;41911;52.362;4.978;2023-02-20T00:46:11;102404.57;;;5.38;55.61
55687;BME280;41911;52.362;4.978;2023-02-20T00:46:42;102403.07;;;5.39;55.78
55687;BME280;41911;52.362;4.978;2023-02-20T00:47:12;102399.46;;;5.59;56.11
55687;BME280;41911;52.362;4.978;2023-02-20T00:47:44;102399.14;;;5.78;55.78
55687;BME280;41911;52.362;4.978;2023-02-20T00:48:15;102395.74;;;5.57;56.09
55687;BME280;41911;52.362;4.978;2023-02-20T00:48:46;102394.45;;;5.30;56.62
55687;BME280;41911;52.362;4.978;2023-02-20T00:49:17;102390.79;;;5.19;57.00
55687;BME280;41911;52.362;4.978;2023-02-20T00:49:48;102391.77;;;5.46;56.50
55687;BME280;41911;52.362;4.978;2023-02-20T00:50:20;102389.50;;;5.06;56.64
55687;BME280;41911;52.362;4.978;2023-02-20T00:50:51;102388.87;;;5.22;56.52
55687;BME280;41911;52.362;4.978;2023-02-20T00:51:22;102379.62;;;5.40;56.50
55687;BME280;41911;52.362;4.978;2023-02-20T00:51:54;102383.86;;;5.18;56.95
55687;BME280;41911;52.362;4.978;2023-02-20T00:52:25;102381.66;;;5.11;57.25
55687;BME280;41911;52.362;4.978;2023-02-20T00:52:56;102377.41;;;5.30;56.49
55687;BME280;41911;52.362;4.978;2023-02-20T00:53:27;102375.93;;;5.47;56.13
55687;BME280;41911;52.362;4.978;2023-02-20T00:53:58;102378.13;;;5.62;56.33
55687;BME280;41911;52.362;4.978;2023-02-20T00:54:29;102369.89;;;5.22;56.40
55687;BME280;41911;52.362;4.978;2023-02-20T00:55:00;102363.03;;;5.56;56.32
55687;BME280;41911;52.362;4.978;2023-02-20T00:55:31;102356.78;;;5.69;56.21
55687;BME280;41911;52.362;4.978;2023-02-20T00:56:02;102350.93;;;5.56;56.04
55687;BME280;41911;52.362;4.978;2023-02-20T00:56:32;102344.90;;;5.52;56.20
55687;BME280;41911;52.362;4.978;2023-02-20T00:57:03;102343.35;;;5.63;56.40
55687;BME280;41911;52.362;4.978;2023-02-20T00:57:34;102339.63;;;5.73;56.31
55687;BME280;41911;52.362;4.978;2023-02-20T00:58:05;102341.32;;;5.47;56.13
55687;BME280;41911;52.362;4.978;2023-02-20T00:58:36;102336.51;;;5.58;56.52
55687;BME280;41911;52.362;4.978;2023-02-20T00:59:07;102333.34;;;5.02;56.89
55687;BME280;41911;52.362;4.978;2023-02-20T00:59:38;102340.89;;;5.10;57.42
55687;BME280;41911;52.362;4.978;2023-02-20T01:00:17;102337.70;;;4.95;57.84
55687;BME280;41911;52.362;4.978;2023-02-20T01:00:49;102337.45;;;4.81;57.61
55687;BME280;41911;52.362;4.978;2023-02-20T01:01:20;102339.44;;;4.65;57.74
55687;BME280;41911;52.362;4.978;2023-02-20T01:01:51;102335.28;;;4.65;58.54
55687;BME280;41911;52.362;4.978;2023-02-20T01:02:24;102336.77;;;4.93;58.08
55687;BME280;41911;52.362;4.978;2023-02-20T01:02:55;102333.35;;;5.27;57.60
55687;BME280;41911;52.362;4.978;2023-02-20T01:03:26;102332.62;;;4.97;57.84
55687;BME280;41911;52.362;4.978;2023-02-20T01:03:57;102328.60;;;4.99;58.07
55687;BME280;41911;52.362;4.978;2023-02-20T01:04:28;102326.35;;;4.94;58.10
55687;BME280;41911;52.362;4.978;2023-02-20T01:04:59;102323.14;;;5.27;57.49
55687;BME280;41911;52.362;4.978;2023-02-20T01:05:30;102322.72;;;4.99;57.53
55687;BME280;41911;52.362;4.978;2023-02-20T01:06:01;102322.56;;;5.68;56.89
55687;BME280;41911;52.362;4.978;2023-02-20T01:06:32;102323.51;;;5.55;56.88
55687;BME280;41911;52.362;4.978;2023-02-20T01:07:03;102321.80;;;4.68;57.75
55687;BME280;41911;52.362;4.978;2023-02-20T01:07:34;102318.18;;;4.92;58.05
55687;BME280;41911;52.362;4.978;2023-02-20T01:08:05;102315.41;;;5.13;57.80
55687;BME280;41911;52.362;4.978;2023-02-20T01:08:36;102320.26;;;5.00;57.42
55687;BME280;41911;52.362;4.978;2023-02-20T01:09:07;102316.28;;;5.10;57.82
55687;BME280;41911;52.362;4.978;2023-02-20T01:09:38;102318.24;;;5.19;57.70
55687;BME280;41911;52.362;4.978;2023-02-20T01:10:10;102316.02;;;5.24;57.34
55687;BME280;41911;52.362;4.978;2023-02-20T01:10:42;102318.72;;;5.50;57.08
55687;BME280;41911;52.362;4.978;2023-02-20T01:11:13;102321.89;;;5.36;57.35
55687;BME280;41911;52.362;4.978;2023-02-20T01:11:44;102319.65;;;5.16;57.66
55687;BME280;41911;52.362;4.978;2023-02-20T01:12:15;102318.86;;;5.18;57.69
55687;BME280;41911;52.362;4.978;2023-02-20T01:12:46;102321.99;;;5.37;57.30
55687;BME280;41911;52.362;4.978;2023-02-20T01:13:18;102323.53;;;5.41;57.12
55687;BME280;41911;52.362;4.978;2023-02-20T01:13:49;102319.62;;;5.44;57.26
55687;BME280;41911;52.362;4.978;2023-02-20T01:14:21;102327.06;;;5.10;57.25
55687;BME280;41911;52.362;4.978;2023-02-20T01:14:52;102324.92;;;5.43;57.28
55687;BME280;41911;52.362;4.978;2023-02-20T01:15:23;102325.98;;;4.70;58.01
55687;BME280;41911;52.362;4.978;2023-02-20T01:15:54;102323.42;;;5.17;57.83
55687;BME280;41911;52.362;4.978;2023-02-20T01:16:25;102325.57;;;5.20;57.73
55687;BME280;41911;52.362;4.978;2023-02-20T01:16:56;102325.11;;;5.25;57.61
55687;BME280;41911;52.362;4.978;2023-02-20T01:17:27;102324.19;;;5.08;57.95
55687;BME280;41911;52.362;4.978;2023-02-20T01:17:59;102330.06;;;5.16;57.64
55687;BME280;41911;52.362;4.978;2023-02-20T01:18:30;102330.83;;;5.05;57.97
55687;BME280;41911;52.362;4.978;2023-02-20T01:19:01;102326.06;;;5.03;58.02
55687;BME280;41911;52.362;4.978;2023-02-20T01:19:32;102324.07;;;4.80;58.52
55687;BME280;41911;52.362;4.978;2023-02-20T01:20:04;102326.94;;;5.28;57.65
55687;BME280;41911;52.362;4.978;2023-02-20T01:20:35;102330.10;;;5.29;57.50
55687;BME280;41911;52.362;4.978;2023-02-20T01:21:07;102325.23;;;5.35;57.53
55687;BME280;41911;52.362;4.978;2023-02-20T01:21:38;102325.30;;;5.23;57.66
55687;BME280;41911;52.362;4.978;2023-02-20T01:22:09;102323.06;;;5.52;57.07
55687;BME280;41911;52.362;4.978;2023-02-20T01:22:40;102324.37;;;5.41;57.22
55687;BME280;41911;52.362;4.978;2023-02-20T01:23:11;102318.34;;;5.30;57.49
55687;BME280;41911;52.362;4.978;2023-02-20T01:23:43;102320.47;;;5.29;57.59
55687;BME280;41911;52.362;4.978;2023-02-20T01:24:15;102319.93;;;5.07;57.88
55687;BME280;41911;52.362;4.978;2023-02-20T01:24:46;102317.63;;;5.08;58.01
55687;BME280;41911;52.362;4.978;2023-02-20T01:25:17;102316.47;;;5.16;57.39
55687;BME280;41911;52.362;4.978;2023-02-20T01:25:48;102318.41;;;5.56;57.19
55687;BME280;41911;52.362;4.978;2023-02-20T01:26:19;102317.80;;;4.96;57.62
55687;BME280;41911;52.362;4.978;2023-02-20T01:26:50;102317.04;;;4.80;57.99
55687;BME280;41911;52.362;4.978;2023-02-20T01:27:21;102318.88;;;5.34;57.60
55687;BME280;41911;52.362;4.978;2023-02-20T01:27:52;102321.67;;;5.51;57.11
55687;BME280;41911;52.362;4.978;2023-02-20T01:28:23;102320.59;;;5.14;57.80
55687;BME280;41911;52.362;4.978;2023-02-20T01:28:54;102321.20;;;4.87;58.43
55687;BME280;41911;52.362;4.978;2023-02-20T01:29:25;102323.30;;;4.85;58.49
55687;BME280;41911;52.362;4.978;2023-02-20T01:29:57;102325.05;;;5.21;57.98
55687;BME280;41911;52.362;4.978;2023-02-20T01:30:29;102320.64;;;5.27;57.82
55687;BME280;41911;52.362;4.978;2023-02-20T01:30:59;102319.37;;;4.90;58.16
55687;BME280;41911;52.362;4.978;2023-02-20T01:31:32;102315.97;;;4.52;59.25
55687;BME280;41911;52.362;4.978;2023-02-20T01:32:03;102316.79;;;4.59;59.15
55687;BME280;41911;52.362;4.978;2023-02-20T01:32:34;102319.82;;;5.17;58.25
55687;BME280;41911;52.362;4.978;2023-02-20T01:33:05;102318.68;;;5.26;58.01
55687;BME280;41911;52.362;4.978;2023-02-20T01:33:40;102311.62;;;4.74;58.89
55687;BME280;41911;52.362;4.978;2023-02-20T01:34:11;102314.24;;;5.03;58.42
55687;BME280;41911;52.362;4.978;2023-02-20T01:34:41;102311.69;;;4.82;59.24
55687;BME280;41911;52.362;4.978;2023-02-20T01:35:14;102314.65;;;4.79;58.94
55687;BME280;41911;52.362;4.978;2023-02-20T01:35:45;102316.80;;;5.55;58.43
55687;BME280;41911;52.362;4.978;2023-02-20T01:36:16;102318.53;;;5.11;58.02
55687;BME280;41911;52.362;4.978;2023-02-20T01:36:49;102320.91;;;5.34;57.66
55687;BME280;41911;52.362;4.978;2023-02-20T01:37:21;102321.89;;;5.43;57.59
55687;BME280;41911;52.362;4.978;2023-02-20T01:37:52;102321.81;;;5.20;58.10
55687;BME280;41911;52.362;4.978;2023-02-20T01:38:23;102328.03;;;5.04;58.31
55687;BME280;41911;52.362;4.978;2023-02-20T01:38:54;102329.09;;;5.06;58.35
55687;BME280;41911;52.362;4.978;2023-02-20T01:39:27;102325.49;;;5.01;58.59
55687;BME280;41911;52.362;4.978;2023-02-20T01:39:58;102325.43;;;5.09;57.88
55687;BME280;41911;52.362;4.978;2023-02-20T01:40:29;102327.40;;;5.44;57.54
55687;BME280;41911;52.362;4.978;2023-02-20T01:41:02;102327.81;;;5.44;57.60
55687;BME280;41911;52.362;4.978;2023-02-20T01:41:33;102323.40;;;5.01;58.24
55687;BME280;41911;52.362;4.978;2023-02-20T01:42:05;102321.70;;;4.93;58.64
55687;BME280;41911;52.362;4.978;2023-02-20T01:42:39;102322.60;;;5.18;58.11
55687;BME280;41911;52.362;4.978;2023-02-20T01:43:10;102315.12;;;5.09;58.13
55687;BME280;41911;52.362;4.978;2023-02-20T01:43:42;102312.98;;;5.02;57.94
55687;BME280;41911;52.362;4.978;2023-02-20T01:44:18;102314.05;;;5.17;58.08
55687;BME280;41911;52.362;4.978;2023-02-20T01:44:50;102312.86;;;4.37;59.50
55687;BME280;41911;52.362;4.978;2023-02-20T01:45:34;102314.02;;;4.57;59.48
55687;BME280;41911;52.362;4.978;2023-02-20T01:47:40;102310.47;;;5.14;58.18
55687;BME280;41911;52.362;4.978;2023-02-20T01:48:19;102304.66;;;4.96;57.87
55687;BME280;41911;52.362;4.978;2023-02-20T01:48:51;102307.07;;;4.96;58.10
55687;BME280;41911;52.362;4.978;2023-02-20T01:49:29;102303.14;;;5.28;57.98
55687;BME280;41911;52.362;4.978;2023-02-20T01:50:02;102305.00;;;5.47;57.55
55687;BME280;41911;52.362;4.978;2023-02-20T01:50:37;102303.36;;;5.53;57.33
55687;BME280;41911;52.362;4.978;2023-02-20T01:51:09;102299.64;;;5.03;57.66
55687;BME280;41911;52.362;4.978;2023-02-20T01:51:42;102298.87;;;5.34;57.27
55687;BME280;41911;52.362;4.978;2023-02-20T01:52:18;102296.10;;;5.62;57.23
55687;BME280;41911;52.362;4.978;2023-02-20T01:52:55;102295.79;;;5.85;56.80
55687;BME280;41911;52.362;4.978;2023-02-20T01:53:29;102296.44;;;5.79;56.38
55687;BME280;41911;52.362;4.978;2023-02-20T01:54:01;102299.09;;;5.87;56.15
55687;BME280;41911;52.362;4.978;2023-02-20T01:54:35;102290.23;;;5.80;56.77
55687;BME280;41911;52.362;4.978;2023-02-20T01:55:11;102295.77;;;5.12;57.21
55687;BME280;41911;52.362;4.978;2023-02-20T01:55:45;102294.20;;;5.26;57.87
55687;BME280;41911;52.362;4.978;2023-02-20T01:56:19;102289.40;;;4.91;58.01
55687;BME280;41911;52.362;4.978;2023-02-20T01:56:51;102291.26;;;4.90;58.21
55687;BME280;41911;52.362;4.978;2023-02-20T01:57:25;102288.10;;;5.54;57.51
55687;BME280;41911;52.362;4.978;2023-02-20T01:58:02;102288.71;;;5.61;57.36
55687;BME280;41911;52.362;4.978;2023-02-20T01:58:40;102289.77;;;5.18;58.12
55687;BME280;41911;52.362;4.978;2023-02-20T01:59:12;102290.05;;;5.10;57.78
55687;BME280;41911;52.362;4.978;2023-02-20T01:59:45;102288.87;;;5.58;57.43
55687;BME280;41911;52.362;4.978;2023-02-20T02:00:20;102292.82;;;5.28;57.35
55687;BME280;41911;52.362;4.978;2023-02-20T02:00:53;102291.29;;;5.66;57.13
55687;BME280;41911;52.362;4.978;2023-02-20T02:01:25;102290.96;;;5.38;57.11
55687;BME280;41911;52.362;4.978;2023-02-20T02:01:57;102291.14;;;5.83;56.88
55687;BME280;41911;52.362;4.978;2023-02-20T02:02:30;102289.97;;;5.75;56.63
55687;BME280;41911;52.362;4.978;2023-02-20T02:03:07;102295.60;;;5.95;56.14
55687;BME280;41911;52.362;4.978;2023-02-20T02:03:42;102292.99;;;6.00;55.94
55687;BME280;41911;52.362;4.978;2023-02-20T02:04:15;102293.78;;;5.60;55.92
55687;BME280;41911;52.362;4.978;2023-02-20T02:04:47;102293.04;;;5.66;55.72
55687;BME280;41911;52.362;4.978;2023-02-20T02:05:19;102294.33;;;5.71;55.81
55687;BME280;41911;52.362;4.978;2023-02-20T02:05:54;102293.65;;;5.66;55.72
55687;BME280;41911;52.362;4.978;2023-02-20T02:06:29;102292.75;;;5.84;55.90
55687;BME280;41911;52.362;4.978;2023-02-20T02:07:03;102293.88;;;5.97;55.83
55687;BME280;41911;52.362;4.978;2023-02-20T02:07:35;102293.52;;;5.76;55.60
55687;BME280;41911;52.362;4.978;2023-02-20T02:08:07;102297.83;;;5.66;55.80
55687;BME280;41911;52.362;4.978;2023-02-20T02:08:41;102293.63;;;5.59;55.94
55687;BME280;41911;52.362;4.978;2023-02-20T02:09:18;102295.75;;;5.90;55.52
55687;BME280;41911;52.362;4.978;2023-02-20T02:09:53;102291.37;;;6.22;55.29
55687;BME280;41911;52.362;4.978;2023-02-20T02:10:32;102293.63;;;6.03;55.13
55687;BME280;41911;52.362;4.978;2023-02-20T02:11:08;102297.14;;;6.11;54.84
55687;BME280;41911;52.362;4.978;2023-02-20T02:11:40;102294.70;;;6.07;54.85
55687;BME280;41911;52.362;4.978;2023-02-20T02:12:11;102296.71;;;5.72;55.33
55687;BME280;41911;52.362;4.978;2023-02-20T02:12:45;102293.64;;;5.61;55.67
55687;BME280;41911;52.362;4.978;2023-02-20T02:13:18;102295.78;;;5.46;56.02
55687;BME280;41911;52.362;4.978;2023-02-20T02:13:49;102293.36;;;5.44;56.13
55687;BME280;41911;52.362;4.978;2023-02-20T02:14:20;102293.45;;;5.61;55.94
55687;BME280;41911;52.362;4.978;2023-02-20T02:14:53;102290.29;;;6.11;55.42
55687;BME280;41911;52.362;4.978;2023-02-20T02:15:24;102290.41;;;5.73;55.50
55687;BME280;41911;52.362;4.978;2023-02-20T02:16:10;102289.38;;;5.64;55.88
55687;BME280;41911;52.362;4.978;2023-02-20T02:17:05;102288.04;;;5.72;55.50
55687;BME280;41911;52.362;4.978;2023-02-20T02:17:59;102285.64;;;5.74;55.68
55687;BME280;41911;52.362;4.978;2023-02-20T02:18:42;102289.23;;;5.91;55.98
55687;BME280;41911;52.362;4.978;2023-02-20T02:19:41;102282.24;;;5.30;56.28
55687;BME280;41911;52.362;4.978;2023-02-20T02:20:47;102273.23;;;5.35;56.99
55687;BME280;41911;52.362;4.978;2023-02-20T02:22:50;102272.39;;;5.35;56.54
55687;BME280;41911;52.362;4.978;2023-02-20T02:23:49;102266.39;;;6.16;56.28
55687;BME280;41911;52.362;4.978;2023-02-20T02:24:46;102266.04;;;5.52;56.35
55687;BME280;41911;52.362;4.978;2023-02-20T02:25:31;102267.66;;;5.22;57.28
55687;BME280;41911;52.362;4.978;2023-02-20T02:26:23;102269.81;;;5.87;56.84
55687;BME280;41911;52.362;4.978;2023-02-20T02:28:31;102268.17;;;5.74;56.23
55687;BME280;41911;52.362;4.978;2023-02-20T02:29:31;102272.04;;;4.43;58.61
55687;BME280;41911;52.362;4.978;2023-02-20T02:30:28;102273.41;;;5.04;57.69
55687;BME280;41911;52.362;4.978;2023-02-20T02:31:24;102266.47;;;5.22;58.06
55687;BME280;41911;52.362;4.978;2023-02-20T02:32:13;102268.79;;;5.06;58.04
55687;BME280;41911;52.362;4.978;2023-02-20T02:33:32;102266.48;;;5.33;58.31
55687;BME280;41911;52.362;4.978;2023-02-20T02:34:42;102269.44;;;5.15;58.24
55687;BME280;41911;52.362;4.978;2023-02-20T02:35:26;102272.03;;;5.29;58.57
55687;BME280;41911;52.362;4.978;2023-02-20T02:36:17;102271.44;;;4.94;59.34
55687;BME280;41911;52.362;4.978;2023-02-20T02:37:02;102272.79;;;5.23;58.96
55687;BME280;41911;52.362;4.978;2023-02-20T02:37:45;102270.71;;;4.84;59.19
55687;BME280;41911;52.362;4.978;2023-02-20T02:38:25;102271.44;;;5.22;58.75
55687;BME280;41911;52.362;4.978;2023-02-20T02:39:09;102267.11;;;5.38;58.60
55687;BME280;41911;52.362;4.978;2023-02-20T02:39:48;102261.61;;;4.87;59.62
55687;BME280;41911;52.362;4.978;2023-02-20T02:40:26;102260.35;;;5.05;58.82
55687;BME280;41911;52.362;4.978;2023-02-20T02:41:05;102256.02;;;5.16;59.13
55687;BME280;41911;52.362;4.978;2023-02-20T02:41:45;102258.95;;;5.07;59.34
55687;BME280;41911;52.362;4.978;2023-02-20T02:42:25;102258.98;;;5.10;59.80
55687;BME280;41911;52.362;4.978;2023-02-20T02:43:05;102259.44;;;4.91;60.02
55687;BME280;41911;52.362;4.978;2023-02-20T02:43:47;102252.89;;;4.79;60.50
55687;BME280;41911;52.362;4.978;2023-02-20T02:44:26;102250.30;;;4.73;60.92
55687;BME280;41911;52.362;4.978;2023-02-20T02:45:06;102248.66;;;4.71;60.85
55687;BME280;41911;52.362;4.978;2023-02-20T02:45:44;102249.87;;;4.70;60.77
55687;BME280;41911;52.362;4.978;2023-02-20T02:46:28;102256.66;;;4.97;60.18
55687;BME280;41911;52.362;4.978;2023-02-20T02:47:04;102248.96;;;5.09;60.79
55687;BME280;41911;52.362;4.978;2023-02-20T02:47:44;102251.88;;;4.68;61.40
55687;BME280;41911;52.362;4.978;2023-02-20T02:48:25;102250.20;;;4.50;61.61
55687;BME280;41911;52.362;4.978;2023-02-20T02:49:04;102249.73;;;5.02;61.04
55687;BME280;41911;52.362;4.978;2023-02-20T02:49:44;102251.38;;;4.55;61.20
55687;BME280;41911;52.362;4.978;2023-02-20T02:50:22;102252.45;;;4.55;61.80
55687;BME280;41911;52.362;4.978;2023-02-20T02:51:04;102252.98;;;4.99;61.25
55687;BME280;41911;52.362;4.978;2023-02-20T02:51:41;102253.25;;;4.50;61.71
55687;BME280;41911;52.362;4.978;2023-02-20T02:52:13;102248.56;;;4.90;61.43
55687;BME280;41911;52.362;4.978;2023-02-20T02:52:45;102251.54;;;4.79;61.76
55687;BME280;41911;52.362;4.978;2023-02-20T02:53:18;102249.78;;;5.02;60.96
55687;BME280;41911;52.362;4.978;2023-02-20T02:54:07;102249.14;;;4.97;60.93
55687;BME280;41911;52.362;4.978;2023-02-20T02:54:39;102244.84;;;4.75;61.03
55687;BME280;41911;52.362;4.978;2023-02-20T02:55:10;102244.41;;;4.93;61.28
55687;BME280;41911;52.362;4.978;2023-02-20T02:55:41;102249.09;;;4.42;61.66
55687;BME280;41911;52.362;4.978;2023-02-20T02:56:12;102249.00;;;4.40;61.88
55687;BME280;41911;52.362;4.978;2023-02-20T02:56:45;102253.03;;;4.99;61.08
55687;BME280;41911;52.362;4.978;2023-02-20T02:57:20;102247.73;;;4.93;61.12
55687;BME280;41911;52.362;4.978;2023-02-20T02:57:53;102250.32;;;4.97;61.64
55687;BME280;41911;52.362;4.978;2023-02-20T02:58:24;102251.48;;;4.95;61.64
55687;BME280;41911;52.362;4.978;2023-02-20T02:58:55;102248.46;;;5.01;61.59
55687;BME280;41911;52.362;4.978;2023-02-20T02:59:30;102249.46;;;4.87;61.08
55687;BME280;41911;52.362;4.978;2023-02-20T03:00:05;102251.69;;;4.95;61.03
55687;BME280;41911;52.362;4.978;2023-02-20T03:00:40;102242.62;;;4.88;61.43
55687;BME280;41911;52.362;4.978;2023-02-20T03:01:16;102245.10;;;4.84;61.62
55687;BME280;41911;52.362;4.978;2023-02-20T03:01:53;102244.58;;;5.06;61.62
55687;BME280;41911;52.362;4.978;2023-02-20T03:02:29;102241.57;;;4.62;61.65
55687;BME280;41911;52.362;4.978;2023-02-20T03:03:09;102244.88;;;4.42;62.78
55687;BME280;41911;52.362;4.978;2023-02-20T03:03:43;102241.62;;;4.13;62.84
55687;BME280;41911;52.362;4.978;2023-02-20T03:04:15;102244.99;;;4.44;62.77
55687;BME280;41911;52.362;4.978;2023-02-20T03:04:48;102242.34;;;4.42;62.36
55687;BME280;41911;52.362;4.978;2023-02-20T03:05:27;102243.11;;;4.95;61.59
55687;BME280;41911;52.362;4.978;2023-02-20T03:06:04;102240.63;;;4.84;62.08